Snow/Ice From: 16-12-2017 16:00 Until: 17-12-2017 16:00 warning for: Snow/Ice Level: Yellow info button

Although rather usual in this region, locally or potentially dangerous phenomena are expected. (such as local winds, summer thunderstorms, rising streams or high waves) Be aware and pay attention to the latest weather updates, especially if you carry out activities exposed to weather or close to a stream or shoreline. 


Meteo18 Weather Cam more information Meteo18 Weather Cam


Thunder radar more information blitzortung!


warning for Snow/Ice more information rain snow radar


Visit our other weather sites:

Template documentation
and downloads

And another site



Weather Underground History page Text

Daily Summary for July 4, 2017 Units:  Metric    English   Both
« Previous Day
Next Day »
Daily Weekly Monthly Yearly Custom
  High: Low: Average:
Temperature: 30.1 °C 11.8 °C 21.5 °C
Dew Point: 16.1 °C 11.0 °C 13.8 °C
Humidity: 96 % 38 % 66 %
Wind Speed: 11.3 km/h 0.0 km/h 1.9 km/h
Wind Gust: 19.3 km/h - -
Wind:- - ESE
Pressure: 1023.9 hPa 1018.2 hPa -
Precipitation: 0.0 mm    
Historical Graphs
 
 
Tabular Data for July 4, 2017
Time Temperature Dew Point Pressure Wind Wind Speed Wind Gust Humidity Rainfall Rate (Hourly)
00:02 14.8 °C 13.2 °C 1023.9 hPa Calm     90 % 0.0 mm
00:12 15.0 °C 13.4 °C 1023.9 hPa Calm     90 % 0.0 mm
00:17 15.1 °C 13.5 °C 1023.6 hPa Calm     90 % 0.0 mm
00:22 15.0 °C 13.4 °C 1023.6 hPa Calm     90 % 0.0 mm
00:32 14.7 °C 13.1 °C 1023.6 hPa Calm     90 % 0.0 mm
00:42 14.6 °C 13.1 °C 1023.6 hPa Calm     91 % 0.0 mm
00:47 14.6 °C 13.1 °C 1023.6 hPa Calm     91 % 0.0 mm
00:52 14.6 °C 13.1 °C 1023.6 hPa Calm     91 % 0.0 mm
00:57 14.6 °C 13.1 °C 1023.6 hPa Calm     91 % 0.0 mm
01:02 14.4 °C 12.9 °C 1023.6 hPa Calm     91 % 0.0 mm
01:07 14.4 °C 13.1 °C 1023.6 hPa Calm     92 % 0.0 mm
01:12 14.3 °C 13.0 °C 1023.6 hPa Calm     92 % 0.0 mm
01:17 14.2 °C 12.9 °C 1023.6 hPa Calm     92 % 0.0 mm
01:22 14.2 °C 12.9 °C 1023.6 hPa Calm     92 % 0.0 mm
01:27 14.1 °C 12.8 °C 1023.6 hPa Calm     92 % 0.0 mm
01:32 13.9 °C 12.6 °C 1023.6 hPa Calm     92 % 0.0 mm
01:37 13.8 °C 12.7 °C 1023.6 hPa Calm     93 % 0.0 mm
01:42 13.7 °C 12.6 °C 1023.6 hPa Calm     93 % 0.0 mm
01:47 13.6 °C 12.5 °C 1023.6 hPa Calm     93 % 0.0 mm
01:52 13.6 °C 12.5 °C 1023.6 hPa Calm     93 % 0.0 mm
01:57 13.6 °C 12.7 °C 1023.6 hPa Calm     94 % 0.0 mm
02:02 13.6 °C 12.7 °C 1023.6 hPa Calm     94 % 0.0 mm
02:07 13.6 °C 12.7 °C 1023.6 hPa Calm     94 % 0.0 mm
02:12 13.5 °C 12.4 °C 1023.6 hPa Calm     93 % 0.0 mm
02:17 13.4 °C 12.3 °C 1023.6 hPa Calm     93 % 0.0 mm
02:22 13.3 °C 12.2 °C 1023.2 hPa Calm     93 % 0.0 mm
02:27 13.3 °C 12.4 °C 1023.6 hPa Calm     94 % 0.0 mm
02:32 13.2 °C 12.3 °C 1023.2 hPa Calm     94 % 0.0 mm
02:37 13.2 °C 12.3 °C 1023.2 hPa Calm     94 % 0.0 mm
02:42 13.2 °C 12.3 °C 1023.2 hPa Calm     94 % 0.0 mm
02:47 13.2 °C 12.3 °C 1023.2 hPa Calm     94 % 0.0 mm
02:52 13.2 °C 12.3 °C 1023.2 hPa Calm     94 % 0.0 mm
02:57 13.2 °C 12.3 °C 1023.2 hPa Calm     94 % 0.0 mm
03:02 13.1 °C 12.2 °C 1023.2 hPa Calm     94 % 0.0 mm
03:12 12.9 °C 12.0 °C 1023.2 hPa Calm     94 % 0.0 mm
03:17 12.8 °C 11.9 °C 1023.2 hPa Calm     94 % 0.0 mm
03:22 12.8 °C 12.0 °C 1023.2 hPa Calm     95 % 0.0 mm
03:32 12.8 °C 12.0 °C 1023.2 hPa Calm     95 % 0.0 mm
03:37 12.8 °C 12.0 °C 1023.2 hPa Calm     95 % 0.0 mm
03:42 12.7 °C 11.9 °C 1023.2 hPa Calm     95 % 0.0 mm
03:47 12.7 °C 11.9 °C 1023.2 hPa Calm     95 % 0.0 mm
03:52 12.8 °C 12.0 °C 1023.2 hPa Calm     95 % 0.0 mm
03:57 12.8 °C 12.0 °C 1023.2 hPa NNW 1.6 km/h   95 % 0.0 mm
04:02 12.7 °C 11.9 °C 1023.2 hPa North 1.6 km/h 3.2 km/h 95 % 0.0 mm
04:12 12.5 °C 11.7 °C 1023.2 hPa NNE 1.6 km/h 3.2 km/h 95 % 0.0 mm
04:17 12.6 °C 11.8 °C 1023.2 hPa North 1.6 km/h 3.2 km/h 95 % 0.0 mm
04:22 12.5 °C 11.7 °C 1023.2 hPa Calm   3.2 km/h 95 % 0.0 mm
04:27 12.6 °C 11.8 °C 1023.2 hPa Calm   3.2 km/h 95 % 0.0 mm
04:32 12.6 °C 11.8 °C 1023.2 hPa Calm   3.2 km/h 95 % 0.0 mm
04:37 12.5 °C 11.7 °C 1023.2 hPa Calm   1.6 km/h 95 % 0.0 mm
04:42 12.5 °C 11.7 °C 1023.2 hPa Calm   3.2 km/h 95 % 0.0 mm
04:47 12.3 °C 11.5 °C 1023.2 hPa Calm   3.2 km/h 95 % 0.0 mm
04:52 12.3 °C 11.5 °C 1023.2 hPa Calm   1.6 km/h 95 % 0.0 mm
04:57 12.2 °C 11.4 °C 1023.2 hPa Calm     95 % 0.0 mm
05:02 12.2 °C 11.4 °C 1023.2 hPa Calm     95 % 0.0 mm
05:12 12.2 °C 11.4 °C 1023.2 hPa Calm     95 % 0.0 mm
05:17 12.2 °C 11.6 °C 1022.9 hPa Calm     96 % 0.0 mm
05:22 12.4 °C 11.8 °C 1023.2 hPa North 1.6 km/h 3.2 km/h 96 % 0.0 mm
05:32 12.3 °C 11.5 °C 1023.2 hPa Calm   3.2 km/h 95 % 0.0 mm
05:37 12.1 °C 11.3 °C 1023.2 hPa Calm   1.6 km/h 95 % 0.0 mm
05:42 12.2 °C 11.4 °C 1023.2 hPa Calm   1.6 km/h 95 % 0.0 mm
05:47 12.1 °C 11.3 °C 1023.2 hPa Calm     95 % 0.0 mm
05:52 12.0 °C 11.2 °C 1023.2 hPa Calm     95 % 0.0 mm
05:57 11.9 °C 11.1 °C 1023.2 hPa Calm   1.6 km/h 95 % 0.0 mm
06:02 11.9 °C 11.1 °C 1023.2 hPa Calm   1.6 km/h 95 % 0.0 mm
06:12 11.8 °C 11.0 °C 1022.9 hPa Calm     95 % 0.0 mm
06:17 11.9 °C 11.1 °C 1022.9 hPa Calm     95 % 0.0 mm
06:22 11.9 °C 11.3 °C 1023.2 hPa Calm   3.2 km/h 96 % 0.0 mm
06:27 11.9 °C 11.1 °C 1023.2 hPa Calm   3.2 km/h 95 % 0.0 mm
06:32 11.9 °C 11.1 °C 1023.2 hPa Calm   3.2 km/h 95 % 0.0 mm
06:42 12.3 °C 11.7 °C 1022.9 hPa Calm     96 % 0.0 mm
06:52 12.9 °C 12.1 °C 1023.2 hPa Calm     95 % 0.0 mm
07:02 13.5 °C 12.7 °C 1023.2 hPa Calm     95 % 0.0 mm
07:07 13.6 °C 12.5 °C 1023.2 hPa Calm     93 % 0.0 mm
07:12 13.8 °C 12.9 °C 1023.2 hPa Calm     94 % 0.0 mm
07:17 14.2 °C 13.2 °C 1023.2 hPa Calm     94 % 0.0 mm
07:22 14.9 °C 14.1 °C 1023.2 hPa Calm     95 % 0.0 mm
07:27 15.3 °C 14.2 °C 1023.2 hPa Calm     93 % 0.0 mm
07:32 15.5 °C 14.2 °C 1022.9 hPa Calm     92 % 0.0 mm
07:42 16.3 °C 14.8 °C 1022.9 hPa Calm     91 % 0.0 mm
07:47 16.3 °C 14.1 °C 1023.2 hPa Calm     87 % 0.0 mm
07:52 16.2 °C 14.2 °C 1022.9 hPa Calm     88 % 0.0 mm
07:57 16.6 °C 14.4 °C 1023.2 hPa Calm     87 % 0.0 mm
08:02 16.7 °C 14.5 °C 1023.2 hPa Calm     87 % 0.0 mm
08:07 17.2 °C 15.0 °C 1022.9 hPa Calm     87 % 0.0 mm
08:12 17.6 °C 15.2 °C 1022.9 hPa Calm     86 % 0.0 mm
08:17 18.2 °C 15.5 °C 1022.9 hPa Calm     84 % 0.0 mm
08:22 18.8 °C 15.7 °C 1022.9 hPa Calm     82 % 0.0 mm
08:32 18.7 °C 15.4 °C 1022.9 hPa Calm     81 % 0.0 mm
08:37 18.3 °C 14.8 °C 1022.9 hPa Calm   1.6 km/h 80 % 0.0 mm
08:42 18.3 °C 15.4 °C 1022.9 hPa West 1.6 km/h 1.6 km/h 83 % 0.0 mm
08:47 18.8 °C 15.5 °C 1022.9 hPa Calm   1.6 km/h 81 % 0.0 mm
08:52 19.3 °C 15.8 °C 1022.9 hPa Calm   1.6 km/h 80 % 0.0 mm
08:57 19.7 °C 15.3 °C 1022.9 hPa Calm   3.2 km/h 76 % 0.0 mm
09:02 19.8 °C 15.4 °C 1022.9 hPa Calm   3.2 km/h 76 % 0.0 mm
09:12 20.6 °C 15.6 °C 1022.9 hPa SSE 1.6 km/h 3.2 km/h 73 % 0.0 mm
09:17 20.2 °C 15.0 °C 1022.9 hPa South 1.6 km/h 4.8 km/h 72 % 0.0 mm
09:22 20.3 °C 15.3 °C 1022.9 hPa Calm   4.8 km/h 73 % 0.0 mm
09:32 20.8 °C 15.3 °C 1022.6 hPa Calm   4.8 km/h 71 % 0.0 mm
09:37 20.9 °C 15.2 °C 1022.9 hPa Calm   4.8 km/h 70 % 0.0 mm
09:42 21.2 °C 15.1 °C 1022.9 hPa ESE 1.6 km/h 4.8 km/h 68 % 0.0 mm
09:47 21.3 °C 15.4 °C 1022.6 hPa ESE 1.6 km/h 6.4 km/h 69 % 0.0 mm
09:52 21.3 °C 15.4 °C 1022.9 hPa ENE 4.8 km/h 6.4 km/h 69 % 0.0 mm
09:57 21.4 °C 15.5 °C 1022.6 hPa SSW 1.6 km/h 6.4 km/h 69 % 0.0 mm
10:02 21.9 °C 15.7 °C 1022.6 hPa SSW 4.8 km/h 6.4 km/h 68 % 0.0 mm
10:07 21.9 °C 16.0 °C 1022.6 hPa East 4.8 km/h 6.4 km/h 69 % 0.0 mm
10:12 21.9 °C 15.5 °C 1022.6 hPa WSW 1.6 km/h 8.0 km/h 67 % 0.0 mm
10:22 22.3 °C 15.9 °C 1022.9 hPa ESE 1.6 km/h 8.0 km/h 67 % 0.0 mm
10:27 22.6 °C 15.9 °C 1022.6 hPa Calm   8.0 km/h 66 % 0.0 mm
10:32 23.0 °C 16.1 °C 1022.6 hPa NNE 3.2 km/h 8.0 km/h 65 % 0.0 mm
10:37 22.9 °C 15.7 °C 1022.6 hPa East 4.8 km/h 6.4 km/h 64 % 0.0 mm
10:42 22.9 °C 15.7 °C 1022.6 hPa ESE 6.4 km/h 8.0 km/h 64 % 0.0 mm
10:47 22.9 °C 15.7 °C 1022.6 hPa ENE 1.6 km/h 9.7 km/h 64 % 0.0 mm
10:52 23.0 °C 15.8 °C 1022.6 hPa ENE 3.2 km/h 9.7 km/h 64 % 0.0 mm
10:57 23.0 °C 15.8 °C 1022.6 hPa Calm   8.0 km/h 64 % 0.0 mm
11:02 23.2 °C 15.3 °C 1022.2 hPa ENE 8.0 km/h 8.0 km/h 61 % 0.0 mm
11:07 23.2 °C 15.3 °C 1022.2 hPa ESE 1.6 km/h 12.9 km/h 61 % 0.0 mm
11:12 23.3 °C 14.6 °C 1022.2 hPa ENE 6.4 km/h 12.9 km/h 58 % 0.0 mm
11:17 23.4 °C 14.7 °C 1022.2 hPa Calm   12.9 km/h 58 % 0.0 mm
11:22 23.7 °C 14.9 °C 1022.2 hPa NE 3.2 km/h 12.9 km/h 58 % 0.0 mm
11:27 23.8 °C 14.5 °C 1022.2 hPa ENE 8.0 km/h 12.9 km/h 56 % 0.0 mm
11:32 23.7 °C 13.6 °C 1022.2 hPa Calm   11.3 km/h 53 % 0.0 mm
11:37 23.8 °C 13.9 °C 1022.2 hPa WNW 1.6 km/h 11.3 km/h 54 % 0.0 mm
11:42 24.3 °C 15.0 °C 1022.2 hPa ESE 4.8 km/h 8.0 km/h 56 % 0.0 mm
11:47 24.2 °C 14.0 °C 1021.9 hPa SW 6.4 km/h 8.0 km/h 53 % 0.0 mm
11:52 24.2 °C 14.6 °C 1021.9 hPa West 4.8 km/h 8.0 km/h 55 % 0.0 mm
11:57 24.3 °C 14.4 °C 1021.9 hPa ESE 1.6 km/h 8.0 km/h 54 % 0.0 mm
12:02 24.6 °C 15.0 °C 1021.9 hPa SSW 4.8 km/h 8.0 km/h 55 % 0.0 mm
12:07 24.9 °C 14.4 °C 1021.9 hPa SW 3.2 km/h 9.7 km/h 52 % 0.0 mm
12:12 24.7 °C 14.2 °C 1021.9 hPa Calm   9.7 km/h 52 % 0.0 mm
12:17 25.0 °C 14.8 °C 1021.9 hPa NNE 3.2 km/h 8.0 km/h 53 % 0.0 mm
12:22 24.7 °C 14.8 °C 1021.9 hPa West 1.6 km/h 9.7 km/h 54 % 0.0 mm
12:27 24.8 °C 14.9 °C 1021.6 hPa East 8.0 km/h 9.7 km/h 54 % 0.0 mm
12:32 24.6 °C 14.4 °C 1021.6 hPa NE 4.8 km/h 9.7 km/h 53 % 0.0 mm
12:42 25.4 °C 15.1 °C 1021.6 hPa SSW 4.8 km/h 11.3 km/h 53 % 0.0 mm
12:47 25.6 °C 14.4 °C 1021.6 hPa Calm   8.0 km/h 50 % 0.0 mm
12:52 25.9 °C 14.4 °C 1021.6 hPa ESE 3.2 km/h 8.0 km/h 49 % 0.0 mm
12:57 26.2 °C 15.0 °C 1021.6 hPa SE 3.2 km/h 6.4 km/h 50 % 0.0 mm
13:02 25.8 °C 14.3 °C 1021.6 hPa SE 6.4 km/h 8.0 km/h 49 % 0.0 mm
13:07 25.6 °C 14.1 °C 1021.6 hPa WSW 4.8 km/h 14.5 km/h 49 % 0.0 mm
13:12 25.4 °C 13.9 °C 1021.6 hPa ENE 1.6 km/h 14.5 km/h 49 % 0.0 mm
13:17 25.3 °C 13.8 °C 1021.6 hPa ESE 11.3 km/h 14.5 km/h 49 % 0.0 mm
13:22 25.9 °C 14.0 °C 1021.6 hPa NE 3.2 km/h 12.9 km/h 48 % 0.0 mm
13:27 25.9 °C 14.0 °C 1021.2 hPa NE 4.8 km/h 12.9 km/h 48 % 0.0 mm
13:32 26.1 °C 13.9 °C 1021.2 hPa ESE 9.7 km/h 12.9 km/h 47 % 0.0 mm
13:37 26.0 °C 13.5 °C 1021.2 hPa ENE 8.0 km/h 11.3 km/h 46 % 0.0 mm
13:42 25.9 °C 13.4 °C 1021.2 hPa SSW 3.2 km/h 11.3 km/h 46 % 0.0 mm
13:47 26.3 °C 12.7 °C 1021.2 hPa NE 4.8 km/h 11.3 km/h 43 % 0.0 mm
13:52 26.5 °C 12.5 °C 1021.2 hPa Calm   11.3 km/h 42 % 0.0 mm
13:57 26.6 °C 13.7 °C 1021.2 hPa SSW 3.2 km/h 11.3 km/h 45 % 0.0 mm
14:02 26.6 °C 13.7 °C 1020.9 hPa SSW 8.0 km/h 11.3 km/h 45 % 0.0 mm
14:07 26.8 °C 14.2 °C 1020.9 hPa SE 1.6 km/h 11.3 km/h 46 % 0.0 mm
14:12 26.9 °C 13.6 °C 1020.9 hPa South 4.8 km/h 9.7 km/h 44 % 0.0 mm
14:17 26.7 °C 13.4 °C 1020.9 hPa Calm   16.1 km/h 44 % 0.0 mm
14:22 26.9 °C 14.0 °C 1020.9 hPa East 4.8 km/h 16.1 km/h 45 % 0.0 mm
14:27 26.8 °C 13.5 °C 1020.9 hPa ENE 8.0 km/h 16.1 km/h 44 % 0.0 mm
14:32 26.9 °C 13.6 °C 1020.9 hPa Calm   14.5 km/h 44 % 0.0 mm
14:37 27.1 °C 14.5 °C 1020.9 hPa SSW 3.2 km/h 14.5 km/h 46 % 0.0 mm
14:42 27.1 °C 13.1 °C 1020.9 hPa ENE 8.0 km/h 12.9 km/h 42 % 0.0 mm
14:47 26.7 °C 13.4 °C 1020.5 hPa NW 3.2 km/h 11.3 km/h 44 % 0.0 mm
14:52 26.9 °C 13.6 °C 1020.5 hPa ENE 6.4 km/h 14.5 km/h 44 % 0.0 mm
14:57 26.8 °C 13.5 °C 1020.5 hPa North 6.4 km/h 14.5 km/h 44 % 0.0 mm
15:02 27.1 °C 13.8 °C 1020.5 hPa NE 1.6 km/h 14.5 km/h 44 % 0.0 mm
15:12 27.7 °C 13.6 °C 1020.5 hPa ENE 11.3 km/h 11.3 km/h 42 % 0.0 mm
15:17 27.7 °C 14.0 °C 1020.5 hPa NNE 6.4 km/h 17.7 km/h 43 % 0.0 mm
15:22 27.3 °C 14.0 °C 1020.5 hPa East 8.0 km/h 19.3 km/h 44 % 0.0 mm
15:27 27.6 °C 14.2 °C 1020.5 hPa East 9.7 km/h 19.3 km/h 44 % 0.0 mm
15:32 27.6 °C 13.5 °C 1020.2 hPa NE 6.4 km/h 16.1 km/h 42 % 0.0 mm
15:37 27.6 °C 13.9 °C 1020.2 hPa Calm   14.5 km/h 43 % 0.0 mm
15:42 27.8 °C 13.7 °C 1020.2 hPa East 8.0 km/h 11.3 km/h 42 % 0.0 mm
15:47 27.8 °C 14.1 °C 1020.2 hPa ENE 8.0 km/h 11.3 km/h 43 % 0.0 mm
15:52 27.9 °C 13.8 °C 1020.2 hPa SSW 1.6 km/h 12.9 km/h 42 % 0.0 mm
15:57 28.2 °C 14.4 °C 1020.2 hPa South 1.6 km/h 12.9 km/h 43 % 0.0 mm
16:02 28.3 °C 13.8 °C 1020.2 hPa WNW 4.8 km/h 14.5 km/h 41 % 0.0 mm
16:07 28.4 °C 13.5 °C 1019.9 hPa SW 1.6 km/h 14.5 km/h 40 % 0.0 mm
16:12 28.8 °C 13.9 °C 1019.9 hPa Calm   14.5 km/h 40 % 0.0 mm
16:17 28.7 °C 14.1 °C 1019.9 hPa ENE 4.8 km/h 12.9 km/h 41 % 0.0 mm
16:22 28.6 °C 13.7 °C 1019.9 hPa ENE 3.2 km/h 14.5 km/h 40 % 0.0 mm
16:27 28.3 °C 13.8 °C 1019.9 hPa East 11.3 km/h 14.5 km/h 41 % 0.0 mm
16:32 28.2 °C 13.7 °C 1019.9 hPa East 4.8 km/h 16.1 km/h 41 % 0.0 mm
16:37 28.2 °C 13.7 °C 1019.9 hPa ENE 6.4 km/h 16.1 km/h 41 % 0.0 mm
16:42 28.7 °C 14.1 °C 1019.9 hPa Calm   16.1 km/h 41 % 0.0 mm
16:47 28.8 °C 14.6 °C 1019.9 hPa Calm   9.7 km/h 42 % 0.0 mm
16:52 28.9 °C 13.6 °C 1019.9 hPa Calm   8.0 km/h 39 % 0.0 mm
16:57 28.8 °C 13.9 °C 1019.5 hPa SE 3.2 km/h 9.7 km/h 40 % 0.0 mm
17:02 28.8 °C 14.2 °C 1019.9 hPa East 6.4 km/h 9.7 km/h 41 % 0.0 mm
17:07 28.6 °C 14.1 °C 1019.5 hPa NE 3.2 km/h 12.9 km/h 41 % 0.0 mm
17:12 28.7 °C 13.8 °C 1019.5 hPa SSE 1.6 km/h 12.9 km/h 40 % 0.0 mm
17:17 28.9 °C 14.3 °C 1019.5 hPa SSW 6.4 km/h 12.9 km/h 41 % 0.0 mm
17:22 29.2 °C 15.3 °C 1019.5 hPa SE 3.2 km/h 11.3 km/h 43 % 0.0 mm
17:27 29.1 °C 14.1 °C 1019.2 hPa ESE 9.7 km/h 11.3 km/h 40 % 0.0 mm
17:32 28.7 °C 13.8 °C 1019.2 hPa East 3.2 km/h 16.1 km/h 40 % 0.0 mm
17:37 28.7 °C 14.1 °C 1019.2 hPa East 9.7 km/h 16.1 km/h 41 % 0.0 mm
17:42 28.8 °C 14.2 °C 1018.8 hPa ENE 8.0 km/h 16.1 km/h 41 % 0.0 mm
17:47 28.8 °C 14.2 °C 1018.8 hPa East 6.4 km/h 16.1 km/h 41 % 0.0 mm
17:52 28.9 °C 13.2 °C 1018.8 hPa East 3.2 km/h 14.5 km/h 38 % 0.0 mm
17:57 28.8 °C 13.5 °C 1018.8 hPa ESE 3.2 km/h 12.9 km/h 39 % 0.0 mm
18:02 29.2 °C 13.8 °C 1018.8 hPa ENE 1.6 km/h 9.7 km/h 39 % 0.0 mm
18:07 29.5 °C 14.1 °C 1018.8 hPa ENE 6.4 km/h 9.7 km/h 39 % 0.0 mm
18:12 29.3 °C 14.3 °C 1018.8 hPa East 8.0 km/h 14.5 km/h 40 % 0.0 mm
18:17 28.9 °C 14.3 °C 1018.8 hPa NNE 4.8 km/h 14.5 km/h 41 % 0.0 mm
18:22 28.9 °C 14.3 °C 1018.8 hPa ENE 8.0 km/h 14.5 km/h 41 % 0.0 mm
18:27 28.6 °C 14.1 °C 1018.8 hPa ENE 4.8 km/h 11.3 km/h 41 % 0.0 mm
18:32 28.7 °C 14.1 °C 1018.8 hPa NE 3.2 km/h 11.3 km/h 41 % 0.0 mm
18:42 29.2 °C 13.8 °C 1018.8 hPa SW 3.2 km/h 11.3 km/h 39 % 0.0 mm
18:47 29.5 °C 14.5 °C 1018.8 hPa Calm   8.0 km/h 40 % 0.0 mm
18:52 30.0 °C 15.3 °C 1018.5 hPa Calm   6.4 km/h 41 % 0.0 mm
18:57 30.1 °C 14.6 °C 1018.5 hPa ENE 6.4 km/h 6.4 km/h 39 % 0.0 mm
19:02 29.5 °C 14.5 °C 1018.8 hPa Calm   9.7 km/h 40 % 0.0 mm
19:07 29.3 °C 14.3 °C 1018.8 hPa NE 3.2 km/h 9.7 km/h 40 % 0.0 mm
19:12 28.9 °C 14.7 °C 1018.8 hPa NE 3.2 km/h 9.7 km/h 42 % 0.0 mm
19:17 28.7 °C 14.1 °C 1018.8 hPa East 3.2 km/h 6.4 km/h 41 % 0.0 mm
19:22 28.6 °C 14.1 °C 1018.8 hPa ENE 1.6 km/h 6.4 km/h 41 % 0.0 mm
19:27 28.7 °C 14.1 °C 1018.5 hPa Calm   9.7 km/h 41 % 0.0 mm
19:32 28.6 °C 13.7 °C 1018.5 hPa ENE 8.0 km/h 12.9 km/h 40 % 0.0 mm
19:37 28.4 °C 14.2 °C 1018.5 hPa ESE 1.6 km/h 12.9 km/h 42 % 0.0 mm
19:42 28.3 °C 14.2 °C 1018.5 hPa East 4.8 km/h 12.9 km/h 42 % 0.0 mm
19:47 28.2 °C 14.1 °C 1018.8 hPa ENE 3.2 km/h 8.0 km/h 42 % 0.0 mm
19:52 28.2 °C 14.1 °C 1018.8 hPa ENE 3.2 km/h 8.0 km/h 42 % 0.0 mm
19:57 28.1 °C 14.0 °C 1018.5 hPa Calm   8.0 km/h 42 % 0.0 mm
20:02 27.8 °C 14.1 °C 1018.5 hPa ENE 1.6 km/h 6.4 km/h 43 % 0.0 mm
20:07 27.6 °C 14.6 °C 1018.8 hPa East 1.6 km/h 6.4 km/h 45 % 0.0 mm
20:12 27.6 °C 14.6 °C 1018.8 hPa Calm   6.4 km/h 45 % 0.0 mm
20:17 27.7 °C 14.7 °C 1018.5 hPa Calm   4.8 km/h 45 % 0.0 mm
20:22 27.9 °C 14.5 °C 1018.5 hPa Calm   3.2 km/h 44 % 0.0 mm
20:27 28.0 °C 14.6 °C 1018.5 hPa East 1.6 km/h 4.8 km/h 44 % 0.0 mm
20:32 27.9 °C 14.5 °C 1018.5 hPa ENE 3.2 km/h 6.4 km/h 44 % 0.0 mm
20:37 27.8 °C 14.4 °C 1018.5 hPa East 1.6 km/h 6.4 km/h 44 % 0.0 mm
20:42 27.8 °C 14.4 °C 1018.5 hPa Calm   6.4 km/h 44 % 0.0 mm
20:47 27.7 °C 14.3 °C 1018.2 hPa Calm   4.8 km/h 44 % 0.0 mm
20:57 27.4 °C 14.8 °C 1018.2 hPa East 1.6 km/h 4.8 km/h 46 % 0.0 mm
21:02 27.2 °C 14.6 °C 1018.5 hPa Calm   4.8 km/h 46 % 0.0 mm
21:07 26.9 °C 14.6 °C 1018.5 hPa Calm   4.8 km/h 47 % 0.0 mm
21:12 26.7 °C 14.5 °C 1018.5 hPa Calm   1.6 km/h 47 % 0.0 mm
21:17 26.6 °C 15.0 °C 1018.5 hPa Calm     49 % 0.0 mm
21:22 26.4 °C 15.4 °C 1018.5 hPa Calm     51 % 0.0 mm
21:32 26.1 °C 15.2 °C 1018.5 hPa Calm     51 % 0.0 mm
21:37 25.5 °C 15.2 °C 1018.5 hPa Calm     53 % 0.0 mm
21:42 24.7 °C 14.8 °C 1018.5 hPa Calm     54 % 0.0 mm
21:47 24.2 °C 15.1 °C 1018.5 hPa Calm     57 % 0.0 mm
21:52 23.7 °C 15.2 °C 1018.5 hPa Calm     59 % 0.0 mm
22:02 23.3 °C 14.6 °C 1018.5 hPa Calm     58 % 0.0 mm
22:07 23.1 °C 14.6 °C 1018.5 hPa Calm     59 % 0.0 mm
22:12 22.8 °C 14.9 °C 1018.5 hPa Calm     61 % 0.0 mm
22:17 22.6 °C 15.4 °C 1018.5 hPa Calm     64 % 0.0 mm
22:22 22.4 °C 15.5 °C 1018.5 hPa Calm     65 % 0.0 mm
22:27 22.1 °C 15.2 °C 1018.5 hPa Calm     65 % 0.0 mm
22:32 21.8 °C 15.2 °C 1018.5 hPa Calm     66 % 0.0 mm
22:42 21.3 °C 14.9 °C 1018.8 hPa Calm     67 % 0.0 mm
22:52 20.8 °C 15.1 °C 1018.8 hPa Calm     70 % 0.0 mm
22:57 20.5 °C 15.1 °C 1018.8 hPa Calm     71 % 0.0 mm
23:02 20.4 °C 14.7 °C 1018.8 hPa Calm     70 % 0.0 mm
23:07 20.6 °C 15.2 °C 1018.8 hPa Calm     71 % 0.0 mm
23:12 20.6 °C 15.2 °C 1018.8 hPa Calm     71 % 0.0 mm
23:17 20.5 °C 15.1 °C 1018.8 hPa Calm     71 % 0.0 mm
23:22 20.1 °C 14.9 °C 1018.8 hPa Calm     72 % 0.0 mm
23:27 20.3 °C 15.3 °C 1018.8 hPa Calm     73 % 0.0 mm
23:32 20.6 °C 15.4 °C 1018.8 hPa Calm     72 % 0.0 mm
23:37 20.7 °C 15.5 °C 1018.8 hPa Calm     72 % 0.0 mm
23:42 20.8 °C 15.3 °C 1018.8 hPa Calm     71 % 0.0 mm
23:47 20.8 °C 15.3 °C 1018.8 hPa Calm     71 % 0.0 mm
23:52 20.7 °C 15.3 °C 1018.8 hPa Calm     71 % 0.0 mm
23:57 20.5 °C 15.3 °C 1018.8 hPa Calm     72 % 0.0 mm
Meteo18
Compliments of Weather Underground - 4 mb

Script developed by  Jim McMurry - jmcmurry@mwt.net Adapted for the template by  Wim van der Kuil - Leuven-Template.eu

You find our weather info also at:

European Weather Network

Weather Underground

Equipment we use:

Weather-station
Davis Vue

Weather-program
Meteohub

Weather-server
Raspberry PI 2 B+

Provider
1 and 1

Davis Vue

Meteohub

Raspberry PI 2 B+

1 and 1